Port Chester, NY (10573)

5:17 PM EDT en Septiembre 02, 2014 (GMT -0400)
N1TKS/BYRAM, CT | Change Station
CLOSE
Current Station
Estación meteorológica personal
Location: BYRAM, CT
Altura: 82 ft
Estaciones meteorológicas cercanas
Aviso en curso: Air Quality Alert

Alt 82 ft 41.01 °N, 73.65 °W | Updated 1 second ago

Partly Cloudy
Parcialmente nublado
90.5 ° F
Sensación térmica 99 ° F
N
3.5
Viento Variable Viento desde SE
Gusts 3.5 mph

Hoy
Alta -- | Baja -- ° F
--% Posibilidad de precipitaciones
Ayer
Alta -- | Baja -- ° F
Precip. -- pul
6:22 AM 7:25 PM
Cuarto creciente, 55% visible
Presión 29.80 pul
Visibilidad 10.0 Millas
Nubes Baja 5000 ft
Índice de calor 99 ° F
Punto de rocío 73 ° F
Humedad 57%
Precipitaciones 0.00 pul
Espesor de la nieve No disponible.
UV 3 de una escala de 12
Polen 6.90 de una escala de 12
Ozono Buena
PM2.5 Buena
Flu Activity No disponible.
METAR KHPN 022056Z VRB06KT 10SM FEW050 31/19 A2982 RMK AO2 SLP091 60011 T03110194 56014

More Conditions Fewer Conditions

Presión 29.80 pul
Visibilidad 10.0 Millas
Nubes Baja 5000 ft
Índice de calor 99 ° F
Punto de rocío 73 ° F
Humedad 57%
Precipitaciones 0.00 pul
Espesor de la nieve No disponible.
UV 3 de una escala de 12
Polen 6.90 de una escala de 12
Ozono Buena
PM2.5 Buena
Flu Activity No disponible.
METAR KHPN 022056Z VRB06KT 10SM FEW050 31/19 A2982 RMK AO2 SLP091 60011 T03110194 56014

More Conditions Fewer Conditions

10-Day Weather Forecast

Almanac

Astronomía

Sep. 02, 2014 Salida Puesta
Hora real 6:22 AM EDT 7:25 PM EDT
Crepúsculo civil 5:54 AM EDT 7:53 PM EDT
Crepúsculo náutico 5:20 AM EDT 8:27 PM EDT
Crepúsculo astronómico 4:45 AM EDT 9:02 PM EDT
Luna 2:07 PM EDT Sin puesta de luna
Horas de luz 13h 59m
Horas de luz
13h 03m
Tomorrow will be 2m 39s shorter.
Cuarto creciente, 55% of the Moon is Illuminated
Hoy
Cuarto creciente
Sep 8
Luna llena
Sep 15
Cuarto menguante
Sep 24
Nueva
Oct 1
Cuarto creciente

Extremos de hoy

Máximos del estado Bajos del estado

Community

WunderPhotos

Upload Photos

1,749,769 ¡fotos cargadas!

Nearby

Calidad del aire

  Calidad del aire Índice AQ Contaminante
Ayer Buena
OZONE
Ayer Buena
PM2.5
Real Buena
PM2.5
Real Buena
OZONE
Martes Nociva para grupos sensibles
OZONE
Martes Moderada
PM2.5
Miércoles Buena
PM2.5

Grosos de nieve

Estación Profundido Altura
No tenemos constancia de nieve nueva.

Actividad de terremotos

Ciudad Distance Mag. Tiempo y dato
No hay informes recientes de la actividad sísmica.
Magnitud mínima muestra es 2,5.

Temperaturas de aguas costeras

Lugar Temperatura
Kings Point, NY 75.0 ° F
Bridgeport, CT 75.9 ° F

Estaciones meteorológicas cercanas